Skip Navigation Links
NOAA logo - Click to go to the NOAA homepage
NOAA's National Weather Service
Alaska Aviation Weather Unit
  NWS logo - Click to go to the NWS homepage
Left Navbar Graphic     21 AKDT = 05 GMT

   
NOAA is celebrating 200 years of science, service, and stewardship. Visit the NOAA 200th celebration Web site to learn more.
USA.gov is the U.S. Government's official Web portal to all Federal, state and local government Web resources and services.
Facebook
NWS on Facebook

Important Change Regarding the AAWU Web Presence

 

Over the last several months, the AAWU has been working to navigate its webpages to a nationally supported server. Security, as well as other needs, have necessitated the change.  In the process, we have made an effort to enhance the functionality of our website, as well as some of our products. As of June 27, 2017, aawu.arh.noaa.gov will be discontinued. The new AAWU web address is weather.gov/aawu. It is now live and will run in-parallel with the old site until it is discontinued. Please send any feedback or questions regarding the new webpages to nws.ar.aawu.webauthors@noaa.gov.  Thank you for your patience during this time of transition.
AAWU Home :: Display TAF Add Bookmark
TAF PAGS 242338Z 2500/2524 32007KT P6SM VCSH SCT020 OVC060
      TEMPO 2500/2504 -SHRA SCT006 BKN015 OVC035
     FM251000 VRB04KT P6SM -RA OVC025
      AMD LTD TO CLD VIS AND WIND=
SPECI PAGS 242308Z AUTO 29005KT 10SM FEW005 SCT017 OVC055 13/11 A3014
     RMK AO2=

SPECI PAGS 242327Z AUTO 31007KT 10SM FEW006 BKN015 OVC050 13/11 A3014
     RMK AO2=

METAR PAGS 242356Z AUTO 30006KT 10SM OVC015 13/12 A3013 RMK AO2
 SLP204 60001 T01330117 10133 20106 58006=

SPECI PAGS 250003Z AUTO 31006KT 10SM BKN013 OVC044 13/12 A3013 RMK
     AO2=

SPECI PAGS 250024Z AUTO 32006KT 10SM FEW013 OVC044 13/12 A3012 RMK
 AO2=

PAGS 250056Z AUTO 33007KT 10SM OVC046 13/12 A3012 RMK AO2 SLP200
     T01330117=

PAGS 250111Z AUTO 31005KT 10SM FEW006 OVC048 13/12 A3012 RMK
     AO2=

METAR PAGS 250156Z AUTO 31005KT 10SM OVC042 12/11 A3012 RMK AO2 SLP198
     T01220111=

METAR PAGS 250256Z AUTO 31006KT 10SM -RA OVC038 12/11 A3011 RMK AO2
     RAB55 SLP198 P0000 60000 T01170106 56006=

METAR PAGS 250356Z AUTO 32007KT 10SM OVC038 12/11 A3009 RMK AO2 RAE11
     SLP191 P0000 T01220106=

METAR PAGS 250456Z AUTO 33007KT 10SM FEW038 BKN047 OVC070 12/11 A3008
     RMK AO2 SLP187 T01170106=


NOAA's National Weather Service
Alaska Aviation Weather Unit
6930 Sand Lake Road
Anchorage, AK 99502-1845
Disclaimer
Credits
Glossary
Privacy Policy
About Us
Career Opportunities
Contact AAWU Internet Services Site last modified: April, 17th 2012